Berkley, MI (48072)

11:12 AM EDT on August 30, 2015 (GMT -0400)
N Crooks / W Maple | | Change Station
CLOSE
Current Station
Personal Weather Station
Location: Clawson, MI
Elevation: 702 ft
Nearby Weather Stations

Elev 702 ft 42.55 °N, 83.16 °W | Updated 1 minute ago

Overcast
Overcast
72.4 °F
Feels Like 70 °F
N
1.0
Wind Variable Wind from SW
Gusts 2.0 mph

Today
High -- | Low -- °F
--% Chance of Precip.
Yesterday
High -- | Low -- °F
Precip. -- in
6:55 AM 8:10 PM
Full, 99% visible
Pressure 30.10 in
Visibility 7.0 miles
Clouds Overcast 3100 ft
Heat Index 70 °F
Dew Point 69 °F
Humidity 89%
Rainfall 0.00 in
Snow Depth Not available.
UV 2 out of 12
Pollen 7.80 out of 12
Air Quality Not available.
Flu Activity Not available.
METAR KVLL 301455Z AUTO 22003KT 7SM OVC031 22/20 A3010 RMK AO2 T02200200
Pressure 30.10 in
Visibility 7.0 miles
Clouds Overcast 3100 ft
Heat Index 70 °F
Dew Point 69 °F
Humidity 89%
Rainfall 0.00 in
Snow Depth Not available.
UV 2 out of 12
Pollen 7.80 out of 12
Air Quality Not available.
Flu Activity Not available.
METAR KVLL 301455Z AUTO 22003KT 7SM OVC031 22/20 A3010 RMK AO2 T02200200

10-Day Weather Forecast

×

Almanac

Astronomy

Aug. 30, 2015 Rise Set
Actual Time
Civil Twilight
Nautical Twilight
Astronomical Twilight
Moon
Length of Visible Light
Length of Day
Tomorrow will be .
, % of the Moon is Illuminated

Today's Extremes

State Highs State Lows

Community

WunderPhotos

Upload Photos

1,850,991 photos uploaded!

WunderBlogs® & News

Nearby

Air Quality

  Air Quality AQ Index Pollutant
Not available.

Snow Depth

Station Depth Elevation

Earthquake Activity

City Distance Mag. Time & Date
Minimum magnitude displayed is 2.5.

Coastal Water Temperatures

Place Temperature

Stations

Nearby Weather Stations

Station Location Temp. Windchill Dew Point Humidity Wind Precip. Elev Updated Type